Latest Coastal Weather Observations for Bundaberg

IDQ60701

Issued at 11:25 pm EST Thursday 27 November 2014 (issued every 10 minutes, with the page automatically refreshed every 10 minutes)

About coastal observations | Map of coastal stations | Coastal observations for QLD | Marine services | Other Formats
Station Details ID: 039128 Name: BUNDABERG AERO Lat: -24.91 Lon: 152.32 Height: 30.82 m
Data from the previous 72 hours. | See also: Recent months at Bundaberg
Date/Time
EST
Temp

°C
Wind Pressure Rain
since 9am
mm
Weather Cloud Vis
km
Sea
Height
m
Swell
Dir
 
Speed
knots
Gust
knots
hPa Trend Height
m
Period
s
Dir
27/11:00pm 23.5 E 6 7 1015.6 - 0.0 - Partly cloudy 10 - - - -
27/10:30pm 23.7 E 9 13 1015.6 - 0.0 - - 10 - - - -
27/10:00pm 23.4 E 5 7 1015.9 - 0.0 - Partly cloudy 10 - - - -
27/09:30pm 23.9 ESE 6 7 1015.9 - 0.0 - Partly cloudy 10 - - - -
27/09:00pm 24.3 E 6 8 1015.8 - 0.0 - Cloudy 10 - - - -
27/08:30pm 24.4 ENE 6 7 1015.7 - 0.0 - Partly cloudy 10 - - - -
27/08:00pm 24.3 ENE 7 8 1015.2 - 0.0 - - 10 - - - -
27/07:30pm 24.7 ENE 9 12 1014.5 - 0.0 - - 10 - - - -
27/07:00pm 24.9 NE 9 12 1014.3 - 0.0 - - 10 - - - -
27/06:30pm 25.1 NE 10 13 1014.1 - 0.0 - - 10 - - - -
27/06:00pm 25.6 NNE 12 16 1013.3 - 0.0 - Mostly clear 10 - - - -
27/05:30pm 26.3 NE 11 15 1013.0 - 0.0 - - 10 - - - -
27/05:00pm 26.8 NE 12 15 1012.7 - 0.0 - - 10 - - - -
27/04:30pm 27.5 NE 11 15 1012.6 - 0.0 - - 10 - - - -
27/04:00pm 28.5 ENE 12 16 1012.4 - 0.0 - - 10 - - - -
27/03:30pm 29.1 ENE 12 15 1012.5 - 0.0 - - 10 - - - -
27/03:00pm 29.9 ENE 11 14 1012.5 - 0.0 - - 10 - - - -
27/02:30pm 29.5 ENE 12 16 1012.8 - 0.0 - - 10 - - - -
27/02:00pm 29.8 NE 9 13 1012.8 - 0.0 - Partly cloudy 10 - - - -
27/01:30pm 29.7 NE 8 13 1013.2 - 0.0 - - 10 - - - -
27/01:00pm 28.6 E 9 12 1013.5 - 0.0 - Partly cloudy 10 - - - -
27/12:30pm 28.9 NE 12 15 1013.8 - 0.0 - Partly cloudy 10 - - - -
27/12:00pm 29.8 ENE 10 17 1014.2 - 0.0 - Partly cloudy 10 - - - -
27/11:30am 28.1 NNE 7 12 1014.6 - 0.0 - Partly cloudy 10 - - - -
27/11:00am 27.8 NNE 8 13 1015.0 - 0.0 - Partly cloudy 10 - - - -
27/10:30am 27.9 N 8 12 1015.4 - 0.0 - Partly cloudy 10 - - - -
27/10:00am 27.7 NNE 4 8 1015.6 - 0.0 - Partly cloudy 10 - - - -
27/09:30am 27.4 NE 2 5 1015.9 - 0.0 - Partly cloudy 10 - - - -
27/09:00am 28.1 N 7 9 1015.8 - 0.0 - Partly cloudy 10 - - - -
27/08:30am 27.4 NE 8 12 1015.9 - 0.0 - Partly cloudy 10 - - - -
27/08:00am 26.2 ENE 4 8 1016.2 - 0.0 - Partly cloudy 10 - - - -
27/07:30am 25.8 ESE 4 6 1016.3 - 0.0 - Partly cloudy 10 - - - -
27/07:00am 24.9 S 3 6 1016.1 - 0.0 - Partly cloudy 10 - - - -
27/06:30am 24.1 S 4 5 1015.8 - 0.0 - Partly cloudy 10 - - - -
27/06:00am 22.5 S 1 5 1015.4 - 0.0 - Cloudy 10 - - - -
27/05:30am 21.6 S 5 6 1015.2 - 0.0 - Partly cloudy 10 - - - -
27/05:00am 21.6 SSW 6 8 1015.0 - 0.0 - Partly cloudy 10 - - - -
27/04:30am 21.6 S 4 5 1014.5 - 0.0 - Partly cloudy 10 - - - -
27/04:00am 21.7 ENE 1 3 1014.2 - 0.0 - Partly cloudy 10 - - - -
27/03:30am 22.4 E 3 4 1014.1 - 0.0 - Partly cloudy 10 - - - -
27/03:00am 22.3 CALM 0 0 1014.2 - 0.0 - Mostly cloudy 10 - - - -
27/02:30am 22.2 SSE 3 5 1014.5 - 0.0 - Partly cloudy 10 - - - -
27/02:00am 22.3 S 5 5 1014.7 - 0.0 - Partly cloudy 10 - - - -
27/01:30am 22.3 S 4 5 1014.9 - 0.0 - Cloudy 10 - - - -
27/01:00am 22.7 E 4 6 1015.0 - 0.0 - Partly cloudy 10 - - - -
27/12:30am 22.7 E 5 5 1015.4 - 0.0 - - 10 - - - -
27/12:00am 23.3 E 7 8 1015.8 - 0.0 - - 10 - - - -
 
Date/Time
EST
Temp

°C
Wind Pressure Rain
since 9am
mm
Weather Cloud Vis
km
Sea
Height
m
Swell
Dir
 
Speed
knots
Gust
knots
hPa Trend Height
m
Period
s
Dir
26/11:30pm 22.9 ESE 5 6 1016.3 - 0.0 - - 10 - - - -
26/11:00pm 23.3 E 6 7 1016.7 - 0.0 - - 10 - - - -
26/10:30pm 23.4 ESE 5 6 1016.8 - 0.0 - Partly cloudy 10 - - - -
26/10:00pm 23.5 SE 5 6 1016.8 - 0.0 - Partly cloudy 10 - - - -
26/09:30pm 23.8 E 6 7 1016.5 - 0.0 - - 10 - - - -
26/09:00pm 23.9 ENE 6 8 1016.2 - 0.0 - - 10 - - - -
26/08:30pm 23.8 E 6 9 1015.8 - 0.0 - - 10 - - - -
26/08:00pm 24.1 ENE 6 7 1015.7 - 0.0 - - 10 - - - -
26/07:30pm 24.4 ENE 5 7 1015.7 - 0.0 - - 10 - - - -
26/07:00pm 24.7 ENE 7 10 1015.5 - 0.0 - - 10 - - - -
26/06:30pm 24.9 ENE 7 10 1015.3 - 0.0 - - 10 - - - -
26/06:00pm 25.4 ENE 10 12 1015.0 - 0.0 - - 10 - - - -
26/05:30pm 26.3 NE 10 12 1014.8 - 0.0 - - 10 - - - -
26/05:00pm 27.5 NE 10 14 1014.5 - 0.0 - - 10 - - - -
26/04:30pm 27.9 NNE 10 12 1014.0 - 0.0 - - 10 - - - -
26/04:00pm 28.2 NE 10 13 1014.0 - 0.0 - - 10 - - - -
26/03:30pm 28.5 NE 11 17 1013.6 - 0.0 - - 10 - - - -
26/03:00pm 28.8 NE 12 16 1013.8 - 0.0 - - 10 - - - -
26/02:30pm 28.9 NE 11 17 1013.9 - 0.0 - Partly cloudy 10 - - - -
26/02:00pm 29.1 NE 10 15 1014.1 - 0.0 - Partly cloudy 10 - - - -
26/01:30pm 29.4 ENE 10 13 1014.4 - 0.0 - - 10 - - - -
26/01:00pm 30.0 ENE 10 15 1014.8 - 0.0 - Partly cloudy 10 - - - -
26/12:30pm 29.9 ENE 11 17 1015.1 - 0.0 - Partly cloudy 10 - - - -
26/12:00pm 29.6 ENE 11 17 1015.5 - 0.0 - Partly cloudy 10 - - - -
26/11:30am 29.4 NE 12 18 1015.7 - 0.0 - Partly cloudy 10 - - - -
26/11:00am 28.7 NE 13 18 1015.8 - 0.0 - Partly cloudy 10 - - - -
26/10:30am 28.9 ENE 12 18 1016.0 - 0.0 - Partly cloudy 10 - - - -
26/10:00am 27.6 ENE 12 17 1016.2 - 0.0 - Partly cloudy 10 - - - -
26/09:30am 28.7 ENE 12 19 1016.1 - 0.0 - Partly cloudy 10 - - - -
26/09:00am 29.3 ENE 12 16 1016.3 - 0.0 - Cloudy 10 - - - -
26/08:30am 27.1 ENE 9 13 1016.5 - 0.0 - Partly cloudy 10 - - - -
26/08:00am 25.8 NE 9 12 1016.4 - 0.0 - Partly cloudy 10 - - - -
26/07:30am 26.6 ENE 8 12 1016.2 - 0.0 - Partly cloudy 10 - - - -
26/07:00am 25.5 ENE 10 13 1016.0 - 0.0 - Partly cloudy 10 - - - -
26/06:30am 24.8 NE 8 10 1015.8 - 0.0 - Partly cloudy 10 - - - -
26/06:00am 24.0 ENE 6 7 1015.4 - 0.0 - Partly cloudy 10 - - - -
26/05:30am 23.5 ENE 4 6 1015.4 - 0.0 - Partly cloudy 10 - - - -
26/05:00am 22.7 E 4 5 1015.0 - 0.0 - Partly cloudy 10 - - - -
26/04:30am 22.9 E 5 6 1014.9 - 0.0 - Partly cloudy 10 - - - -
26/04:00am 23.2 E 4 5 1014.8 - 0.0 - Partly cloudy 10 - - - -
26/03:30am 23.3 E 5 6 1014.6 - 0.0 - Partly cloudy 10 - - - -
26/03:00am 23.5 E 5 6 1014.4 - 0.0 - Partly cloudy 10 - - - -
26/02:30am 23.7 ENE 6 7 1014.4 - 0.0 - Partly cloudy 10 - - - -
26/02:00am 24.2 E 5 7 1014.4 - 0.0 - Partly cloudy 10 - - - -
26/01:30am 24.0 ENE 5 7 1014.5 - 0.0 - Partly cloudy 10 - - - -
26/01:00am 24.6 NE 6 8 1014.7 - 0.0 - Partly cloudy 10 - - - -
26/12:30am 24.9 NE 6 9 1014.9 - 0.0 - Partly cloudy 10 - - - -
26/12:00am 24.8 NNE 6 9 1014.9 - 0.0 - Cloudy 10 - - - -
 
Date/Time
EST
Temp

°C
Wind Pressure Rain
since 9am
mm
Weather Cloud Vis
km
Sea
Height
m
Swell
Dir
 
Speed
knots
Gust
knots
hPa Trend Height
m
Period
s
Dir
25/11:30pm 25.1 N 7 9 1015.3 - 0.0 - Cloudy 10 - - - -
25/11:00pm 25.0 N 8 11 1015.1 - 0.0 - Partly cloudy 10 - - - -
25/10:30pm 24.8 NNE 10 14 1014.8 - 0.0 - Partly cloudy 10 - - - -
25/10:00pm 24.9 N 9 11 1015.0 - 0.0 - Partly cloudy 10 - - - -
25/09:30pm 25.0 N 9 12 1015.0 - 0.0 - Partly cloudy 10 - - - -
25/09:00pm 25.1 N 9 12 1014.8 - 0.0 - - 10 - - - -
25/08:30pm 25.2 N 10 13 1014.6 - 0.0 - - 10 - - - -
25/08:00pm 25.3 N 10 13 1014.5 - 0.0 - Partly cloudy 10 - - - -
25/07:30pm 25.4 N 11 13 1014.1 - 0.0 - Partly cloudy 10 - - - -
25/07:00pm 25.5 N 11 14 1013.8 - 0.0 - Partly cloudy 10 - - - -
25/06:30pm 25.7 N 12 15 1013.3 - 0.0 - Partly cloudy 10 - - - -
25/06:00pm 26.2 NNE 13 18 1013.0 - 0.0 - Partly cloudy 10 - - - -
25/05:30pm 27.0 NNE 13 16 1012.7 - 0.0 - Partly cloudy 10 - - - -
25/05:00pm 27.8 NNE 13 16 1012.5 - 0.0 - Partly cloudy 10 - - - -
25/04:30pm 28.4 NNE 13 17 1012.4 - 0.0 - - 10 - - - -
25/04:00pm 28.6 NNE 13 17 1012.3 - 0.0 - - 10 - - - -
25/03:30pm 29.7 NNE 13 18 1012.1 - 0.0 - - 10 - - - -
25/03:00pm 29.1 NNE 12 16 1012.4 - 0.0 - - 10 - - - -
25/02:30pm 29.4 NNE 11 18 1012.7 - 0.0 - - 10 - - - -
25/02:00pm 29.5 NNE 13 17 1012.9 - 0.0 - - 10 - - - -
25/01:30pm 30.3 NNE 11 18 1013.0 - 0.0 - - 10 - - - -
25/01:00pm 29.9 NNE 11 17 1013.4 - 0.0 - - 10 - - - -
25/12:30pm 29.4 NE 10 16 1013.9 - 0.0 - - 10 - - - -
25/12:00pm 30.0 NNE 11 17 1014.4 - 0.0 - Mostly clear 10 - - - -
25/11:30am 29.6 NNE 9 14 1014.7 - 0.0 - Partly cloudy 10 - - - -
25/11:00am 29.5 N 10 15 1015.1 - 0.0 - - 10 - - - -
25/10:30am 29.1 N 8 11 1015.6 - 0.0 - Partly cloudy 10 - - - -
25/10:00am 29.3 N 8 12 1015.8 - 0.0 - - 10 - - - -
25/09:30am 28.2 N 10 13 1015.9 - 0.0 - Partly cloudy 10 - - - -
25/09:00am 27.5 NNW 7 9 1016.0 - 0.0 - Cloudy 10 - - - -
25/08:30am 27.1 N 7 9 1016.1 - 0.0 - Partly cloudy 10 - - - -
25/08:00am 26.3 N 8 11 1016.0 - 0.0 - Partly cloudy 10 - - - -
25/07:30am 25.6 NNE 7 11 1015.9 - 0.0 - - 10 - - - -
25/07:00am 24.8 NE 1 4 1015.9 - 0.0 - - 10 - - - -
25/06:30am 23.5 CALM 0 0 1015.7 - 0.0 - - 10 - - - -
25/06:00am 21.4 CALM 0 0 1015.6 - 0.0 - - 10 - - - -
25/05:30am 20.1 S 1 3 1015.2 - 0.0 - - 10 - - - -
25/05:00am 18.7 CALM 0 0 1015.0 - 0.0 - - 10 - - - -
25/04:30am 18.7 CALM 0 0 1014.6 - 0.0 - - 10 - - - -
25/04:00am 19.1 CALM 0 0 1014.3 - 0.0 - - 10 - - - -
25/03:30am 19.4 CALM 0 0 1014.4 - 0.0 - - 10 - - - -
25/03:00am 19.8 CALM 0 0 1014.3 - 0.0 - - 10 - - - -
25/02:30am 19.7 NW 2 3 1014.3 - 0.0 - - 10 - - - -
25/02:00am 19.9 NE 3 6 1014.3 - 0.0 - - 10 - - - -
25/01:30am 20.8 CALM 0 0 1014.6 - 0.0 - - 10 - - - -
25/01:00am 21.2 N 2 3 1014.9 - 0.0 - - 10 - - - -
25/12:30am 21.9 NNE 3 4 1015.2 - 0.0 - - 10 - - - -
25/12:00am 22.2 NE 5 6 1015.6 - 0.0 - - 10 - - - -
 
Date/Time
EST
Temp

°C
Wind Pressure Rain
since 9am
mm
Weather Cloud Vis
km
Sea
Height
m
Swell
Dir
 
Speed
knots
Gust
knots
hPa Trend Height
m
Period
s
Dir
24/11:30pm 22.8 NNE 5 6 1015.7 - 0.0 - - 10 - - - -

Other Formats:

Comma delimited format used in spreadsheet applications
http://www.bom.gov.au/fwo/IDQ60701/IDQ60701.94387.axf

JavaScript Object Notation format (JSON) in row-major order
http://www.bom.gov.au/fwo/IDQ60701/IDQ60701.94387.json